logo
Search for airport 
image banner adimage banner adimage banner ad
image banner ad

LOGH - Graz Lkh

Located in District Graz(Stadt), Austria

ICAO - LOGH, IATA -

Data provided by Airmate  

General information

Coordinates: N47°4'48" E15°27'50"
Elevation is 1415 feet MSL.
 
View others Airports in Styria

Operational data

Special qualification required
Current time UTC:
Current local time:
Weather at : LOWG - Graz ( 10 km )
METAR: LOWG 271520Z VRB02KT 9999 FEW060 24/10 Q1022 NOSIG
TAF: TAF LOWG 271115Z 2712/2812 VRB05KT 9999 FEW050 TX25/2714Z TN09/2804Z TEMPO 2721/2806 0300 BCFG PROB30 TEMPO 2802/2804 VV001
View NOTAMs / SUP AIP / TFR affecting this airport [VIEW]
Communications frequencies: [VIEW]

Runways:

Airport contact information

Address: District Graz(Stadt) Austria

Satellite view of LOGH